»·PEaware :: SWA213 KLAS-KRNO

SWA213 :: KLAS-KRNO

FLIGHT INFORMATION

Flight Status: Arrived
Operator:
Southwest Airlines
More flights by this operator :: More flights under this callsign
Pilot: Ryan B. (8502)
Aircraft: BOEING 737-300
(B733)
More flights by this aircraft type
Origin: KLAS McCarran Intl
United States
Destination: KRNO Reno/Tahoe Intl
United States
More flights between these airports :: More routes between these airports
Route: +SHEAD1 KENNO KENNO2
File this flight plan on PilotEdge
Remarks:
Altitude:
(Current/Filed)
34,000ft
Speed:
(Current/Filed)
436kts
Departed: 19-Oct-17 06:49 PM
Arrived: 19-Oct-17 07:49 PM
Distance/Time
Traveled:
300nm/1:00
Distance/Time
To Go:
Arrived

Flight Plot

Page will automatically refresh every two minutes.

Flight plan parsing failed; only flown route is shown


Map Options




Map Legend


Flown Route
Filed Route
Departure Airport
Arrival Airport
Navaid (VOR, NDB)
Fix

Horizontal Profiles

Position Reports

Time Latitude Longitude Heading Altitude Ground
Speed
19-Oct-17 18:34 36.080934 -115.146012 254 2090ft 0kts
19-Oct-17 18:35 36.080934 -115.146012 254 2090ft 0kts
19-Oct-17 18:36 36.080934 -115.146012 254 2090ft 0kts
19-Oct-17 18:37 36.080934 -115.146012 254 2090ft 0kts
19-Oct-17 18:38 36.080934 -115.146012 254 2090ft 0kts
19-Oct-17 18:39 36.080934 -115.146012 254 2090ft 0kts
19-Oct-17 18:40 36.080934 -115.146012 254 2090ft 0kts
19-Oct-17 18:41 36.080934 -115.146012 254 2090ft 0kts
19-Oct-17 18:42 36.080934 -115.146012 254 2090ft 0kts
19-Oct-17 18:43 36.080934 -115.146012 254 2090ft 0kts
19-Oct-17 18:44 36.080934 -115.146012 254 2090ft 0kts
19-Oct-17 18:45 36.080934 -115.146012 254 2090ft 0kts
19-Oct-17 18:46 36.080934 -115.146012 254 2090ft 0kts
19-Oct-17 18:47 36.081041 -115.145697 231 2090ft 2kts
19-Oct-17 18:48 36.081568 -115.145423 171 2088ft 2kts
19-Oct-17 18:49 36.081729 -115.145482 155 2088ft 0kts
19-Oct-17 18:50 36.081260 -115.145218 156 2088ft 8kts
19-Oct-17 18:51 36.079328 -115.144899 181 2091ft 0kts
19-Oct-17 18:52 36.079083 -115.144913 183 2092ft 0kts
19-Oct-17 18:53 36.078254 -115.141708 89 2084ft 30kts
19-Oct-17 18:54 36.078265 -115.129200 91 2046ft 52kts
19-Oct-17 18:55 36.076868 -115.121268 176 2037ft 11kts
19-Oct-17 18:56 36.076364 -115.138800 269 2077ft 159kts
19-Oct-17 18:57 36.073967 -115.205713 269 4105ft 221kts
19-Oct-17 18:58 36.042331 -115.268385 202 6318ft 266kts
19-Oct-17 18:59 35.971505 -115.302987 216 7983ft 271kts
19-Oct-17 19:00 35.917955 -115.366362 225 11004ft 279kts
19-Oct-17 19:01 35.886348 -115.459196 270 12160ft 349kts
19-Oct-17 19:02 35.889197 -115.582614 270 14572ft 366kts
19-Oct-17 19:03 35.891526 -115.709607 270 16976ft 378kts
19-Oct-17 19:04 35.893754 -115.840528 270 19277ft 389kts
19-Oct-17 19:05 35.904167 -115.974196 297 21348ft 403kts
19-Oct-17 19:06 35.984539 -116.073232 315 23216ft 417kts
19-Oct-17 19:07 36.070143 -116.171586 315 24962ft 426kts
19-Oct-17 19:08 36.157821 -116.272536 315 26547ft 435kts
19-Oct-17 19:09 36.246485 -116.375163 315 28244ft 437kts
19-Oct-17 19:10 36.333727 -116.476511 316 30225ft 429kts
19-Oct-17 19:11 36.420304 -116.577413 316 31663ft 428kts
19-Oct-17 19:12 36.506308 -116.678845 315 31853ft 428kts
19-Oct-17 19:13 36.596546 -116.773874 327 31874ft 426kts
19-Oct-17 19:14 36.697940 -116.849532 326 31874ft 426kts
19-Oct-17 19:15 36.798826 -116.926227 326 31870ft 426kts
19-Oct-17 19:16 36.899458 -117.002996 326 31907ft 424kts
19-Oct-17 19:17 36.999722 -117.079723 325 31953ft 424kts
19-Oct-17 19:18 37.101029 -117.157514 324 31952ft 434kts
19-Oct-17 19:19 37.204169 -117.236708 324 31961ft 437kts
19-Oct-17 19:20 37.306512 -117.317649 316 31952ft 432kts
19-Oct-17 19:21 37.397188 -117.415634 315 31948ft 431kts
19-Oct-17 19:22 37.488052 -117.512959 316 31930ft 431kts
19-Oct-17 19:23 37.589307 -117.594984 323 31946ft 436kts
19-Oct-17 19:24 37.691654 -117.676030 323 31935ft 435kts
19-Oct-17 19:25 37.793705 -117.757214 323 31923ft 435kts
19-Oct-17 19:26 37.895355 -117.838216 323 31904ft 435kts
19-Oct-17 19:27 37.996882 -117.919384 323 31910ft 435kts
19-Oct-17 19:28 38.098653 -118.000999 323 31895ft 436kts
19-Oct-17 19:29 38.200265 -118.082516 323 31861ft 436kts
19-Oct-17 19:30 38.302028 -118.164679 323 31855ft 436kts
19-Oct-17 19:31 38.404119 -118.247399 323 31399ft 438kts
19-Oct-17 19:32 38.491767 -118.351029 312 30036ft 433kts
19-Oct-17 19:33 38.578852 -118.458715 312 28752ft 439kts
19-Oct-17 19:34 38.666771 -118.567605 312 27466ft 444kts
19-Oct-17 19:35 38.753447 -118.675594 311 26001ft 449kts
19-Oct-17 19:36 38.842626 -118.786886 312 24504ft 445kts
19-Oct-17 19:37 38.930282 -118.896238 310 23008ft 436kts
19-Oct-17 19:38 39.016054 -119.003625 308 21512ft 427kts
19-Oct-17 19:39 39.099592 -119.109008 307 20018ft 418kts
19-Oct-17 19:40 39.181345 -119.212010 307 18421ft 410kts
19-Oct-17 19:41 39.261562 -119.313453 307 16207ft 398kts
19-Oct-17 19:42 39.338909 -119.411380 307 13400ft 383kts
19-Oct-17 19:43 39.422749 -119.494391 317 11036ft 371kts
19-Oct-17 19:44 39.499368 -119.564963 326 10063ft 317kts
19-Oct-17 19:45 39.578656 -119.598004 335 9189ft 287kts
19-Oct-17 19:46 39.649913 -119.628869 334 9048ft 265kts
19-Oct-17 19:47 39.719146 -119.659156 333 9027ft 263kts
19-Oct-17 19:48 39.747742 -119.718987 228 9040ft 203kts
19-Oct-17 19:49 39.701373 -119.757567 205 8461ft 197kts
19-Oct-17 19:50 39.649249 -119.768262 186 7547ft 184kts
19-Oct-17 19:51 39.599029 -119.768886 185 6524ft 179kts
19-Oct-17 19:52 39.552445 -119.769294 183 5528ft 155kts
19-Oct-17 19:53 39.512630 -119.769186 182 4480ft 140kts
19-Oct-17 19:54 39.492862 -119.769980 224 4408ft 19kts

Navigation Log

Ident Type
Flight plan parsing failed, navigation log unavailable